createdAt,value
2023-03-29T00:02:10.884Z,7.43
2023-03-29T00:04:38.950Z,7.38
2023-03-29T00:07:06.064Z,7.45
2023-03-29T00:09:33.496Z,6.45
2023-03-29T00:12:01.420Z,7.47
2023-03-29T00:14:30.910Z,7.75
2023-03-29T00:16:58.948Z,7.78
2023-03-29T00:19:25.948Z,8.77
2023-03-29T00:21:52.745Z,7.68
2023-03-29T00:24:21.084Z,7.97
2023-03-29T00:26:47.942Z,7.93
2023-03-29T00:29:14.575Z,7.25
2023-03-29T00:31:41.282Z,8.35
2023-03-29T00:34:07.972Z,7.57
2023-03-29T00:36:34.598Z,7.38
2023-03-29T00:39:01.203Z,8.40
2023-03-29T00:41:27.916Z,7.53
2023-03-29T00:44:04.802Z,8.25
2023-03-29T00:49:03.949Z,8.20
2023-03-29T00:51:34.311Z,7.82
2023-03-29T00:54:03.506Z,8.13
2023-03-29T00:56:37.160Z,9.48
2023-03-29T00:59:10.092Z,8.57
2023-03-29T01:01:46.464Z,8.48
2023-03-29T01:04:21.969Z,8.88
2023-03-29T01:07:13.639Z,8.52
2023-03-29T01:09:43.777Z,8.23
2023-03-29T01:12:22.361Z,8.55
2023-03-29T01:14:56.568Z,7.50
2023-03-29T01:17:25.580Z,7.65
2023-03-29T01:19:59.068Z,6.80
2023-03-29T01:22:38.786Z,7.93
2023-03-29T01:25:29.894Z,7.20
2023-03-29T01:28:08.797Z,7.53
2023-03-29T01:30:59.647Z,8.15
2023-03-29T01:33:34.634Z,9.13
2023-03-29T01:36:11.974Z,8.30
2023-03-29T01:39:06.023Z,8.05
2023-03-29T01:42:10.041Z,7.35
2023-03-29T01:44:59.100Z,8.68
2023-03-29T01:47:43.882Z,6.00
2023-03-29T01:50:23.865Z,7.70
2023-03-29T01:53:02.172Z,6.82
2023-03-29T01:55:34.150Z,6.88
2023-03-29T01:58:03.059Z,7.22
2023-03-29T02:00:30.748Z,7.07
2023-03-29T02:03:03.357Z,7.47
2023-03-29T02:05:31.699Z,7.50
2023-03-29T02:08:01.379Z,7.07
2023-03-29T02:10:29.162Z,6.65
2023-03-29T02:12:56.048Z,5.88
2023-03-29T02:15:23.628Z,9.18
2023-03-29T02:17:51.377Z,7.75
2023-03-29T02:20:39.473Z,7.10
2023-03-29T02:23:18.123Z,7.30
2023-03-29T02:25:46.646Z,7.47
2023-03-29T02:28:13.942Z,7.53
2023-03-29T02:31:05.523Z,7.93
2023-03-29T02:33:46.575Z,8.18
2023-03-29T02:36:30.198Z,7.40
2023-03-29T02:39:01.990Z,7.45
2023-03-29T02:41:28.923Z,8.10
2023-03-29T02:43:57.119Z,7.65
2023-03-29T02:46:24.620Z,7.03
2023-03-29T02:48:54.161Z,6.70
2023-03-29T02:51:24.223Z,7.93
2023-03-29T02:54:03.198Z,7.70
2023-03-29T02:56:30.262Z,7.18
2023-03-29T02:58:56.896Z,8.68
2023-03-29T03:01:23.753Z,7.00
2023-03-29T03:03:51.929Z,6.90
2023-03-29T03:06:18.697Z,7.07
2023-03-29T03:08:45.747Z,7.20
2023-03-29T03:11:12.339Z,6.93
2023-03-29T03:13:38.964Z,6.85
2023-03-29T03:16:06.062Z,5.85
2023-03-29T03:18:32.723Z,6.32
2023-03-29T03:21:02.366Z,6.57
2023-03-29T03:23:29.590Z,6.13
2023-03-29T03:25:56.982Z,6.13
2023-03-29T03:28:24.403Z,5.97
2023-03-29T03:30:51.491Z,5.80
2023-03-29T03:33:19.266Z,7.47
2023-03-29T03:35:46.653Z,6.18
2023-03-29T03:38:13.559Z,4.57
2023-03-29T03:40:40.215Z,5.95
2023-03-29T03:43:07.057Z,5.82
2023-03-29T03:45:33.836Z,5.10
2023-03-29T03:48:00.718Z,4.50
2023-03-29T03:50:27.485Z,5.72
2023-03-29T03:52:54.158Z,5.07
2023-03-29T03:55:22.091Z,4.47
2023-03-29T03:57:48.725Z,4.78
2023-03-29T04:00:19.456Z,4.25
2023-03-29T04:02:48.258Z,4.78
2023-03-29T04:05:16.412Z,4.32
2023-03-29T04:07:43.223Z,4.40
2023-03-29T04:10:11.236Z,4.20
2023-03-29T04:12:38.843Z,4.90
2023-03-29T04:15:06.560Z,4.13
2023-03-29T04:17:33.222Z,4.97
2023-03-29T04:20:02.269Z,4.05
2023-03-29T04:22:28.958Z,3.72
2023-03-29T04:24:55.685Z,3.70
2023-03-29T04:27:22.348Z,3.70
2023-03-29T04:29:49.122Z,4.10
2023-03-29T04:32:15.758Z,3.63
2023-03-29T04:34:42.375Z,3.90
2023-03-29T04:37:10.667Z,4.85
2023-03-29T04:39:38.010Z,4.40
2023-03-29T04:42:05.932Z,4.28
2023-03-29T04:44:33.709Z,5.47
2023-03-29T04:47:01.160Z,4.70
2023-03-29T04:49:27.784Z,3.90
2023-03-29T04:51:54.880Z,5.05
2023-03-29T04:54:21.757Z,4.25
2023-03-29T04:56:48.493Z,3.50
2023-03-29T04:59:15.096Z,4.57
2023-03-29T05:01:41.716Z,3.35
2023-03-29T05:04:10.194Z,5.82
2023-03-29T05:06:38.635Z,3.80
2023-03-29T05:09:05.615Z,3.25
2023-03-29T05:11:32.441Z,3.53
2023-03-29T05:14:02.482Z,3.90
2023-03-29T05:16:32.930Z,3.70
2023-03-29T05:18:59.551Z,5.20
2023-03-29T05:21:26.551Z,3.60
2023-03-29T05:23:53.362Z,3.75
2023-03-29T05:26:22.332Z,3.53
2023-03-29T05:28:51.029Z,3.75
2023-03-29T05:31:18.169Z,3.92
2023-03-29T05:33:45.154Z,4.82
2023-03-29T05:36:14.449Z,3.30
2023-03-29T05:38:47.135Z,4.00
2023-03-29T05:41:15.959Z,4.10
2023-03-29T05:43:42.569Z,4.72
2023-03-29T05:46:09.654Z,4.30
2023-03-29T05:48:36.496Z,4.20
2023-03-29T05:51:03.530Z,4.05
2023-03-29T05:53:30.453Z,4.15
2023-03-29T05:55:57.302Z,3.92
2023-03-29T05:58:26.540Z,4.47
2023-03-29T06:00:53.373Z,3.95
2023-03-29T06:03:25.506Z,3.38
2023-03-29T06:05:58.843Z,3.22
2023-03-29T06:08:26.740Z,3.75
2023-03-29T06:11:05.798Z,3.53
2023-03-29T06:13:34.136Z,3.10
2023-03-29T06:16:01.409Z,3.10
2023-03-29T06:18:28.199Z,4.10
2023-03-29T06:20:54.977Z,3.17
2023-03-29T06:23:22.593Z,3.40
2023-03-29T06:25:51.528Z,3.00
2023-03-29T06:28:19.393Z,2.58
2023-03-29T06:30:46.419Z,3.08
2023-03-29T06:33:14.278Z,3.13
2023-03-29T06:35:43.759Z,2.67
2023-03-29T06:38:10.378Z,3.33
2023-03-29T06:40:40.240Z,3.33
2023-03-29T06:43:07.372Z,3.47
2023-03-29T06:45:39.124Z,2.78
2023-03-29T06:48:07.988Z,3.08
2023-03-29T06:50:35.675Z,3.83
2023-03-29T06:53:04.167Z,2.58
2023-03-29T06:55:31.694Z,3.30
2023-03-29T06:58:00.278Z,2.55
2023-03-29T07:00:28.487Z,3.15
2023-03-29T07:02:58.001Z,3.35
2023-03-29T07:05:27.306Z,2.95
2023-03-29T07:07:54.681Z,4.28
2023-03-29T07:10:22.740Z,3.80
2023-03-29T07:12:49.858Z,2.65
2023-03-29T07:15:16.605Z,2.83
2023-03-29T07:17:43.278Z,2.63
2023-03-29T07:20:13.941Z,3.88
2023-03-29T07:22:41.574Z,3.17
2023-03-29T07:25:09.508Z,3.08
2023-03-29T07:27:41.031Z,3.33
2023-03-29T07:30:11.185Z,3.42
2023-03-29T07:32:39.060Z,2.38
2023-03-29T07:35:06.993Z,2.63
2023-03-29T07:37:35.309Z,2.03
2023-03-29T07:40:09.234Z,2.08
2023-03-29T07:42:38.978Z,2.28
2023-03-29T07:45:08.955Z,2.20
2023-03-29T07:47:35.645Z,2.40
2023-03-29T07:50:04.009Z,2.10
2023-03-29T07:52:30.864Z,3.42
2023-03-29T07:54:57.501Z,2.00
2023-03-29T07:57:25.384Z,2.08
2023-03-29T07:59:54.242Z,2.92
2023-03-29T08:02:21.351Z,2.00
2023-03-29T08:04:48.095Z,1.88
2023-03-29T08:07:17.047Z,2.22
2023-03-29T08:09:45.536Z,2.78
2023-03-29T08:12:12.667Z,1.92
2023-03-29T08:14:39.330Z,1.98
2023-03-29T08:17:06.310Z,2.15
2023-03-29T08:19:33.090Z,2.05
2023-03-29T08:22:00.647Z,1.92
2023-03-29T08:24:27.341Z,2.28
2023-03-29T08:26:54.016Z,1.77
2023-03-29T08:29:20.714Z,1.92
2023-03-29T08:31:47.309Z,2.80
2023-03-29T08:34:14.205Z,2.00
2023-03-29T08:36:41.307Z,2.78
2023-03-29T08:39:07.994Z,2.00
2023-03-29T08:41:46.618Z,2.08
2023-03-29T08:44:25.002Z,2.10
2023-03-29T08:47:17.263Z,1.80
2023-03-29T08:49:48.729Z,2.42
2023-03-29T08:52:38.321Z,2.20
2023-03-29T08:55:18.377Z,2.08
2023-03-29T08:57:47.820Z,2.00
2023-03-29T09:00:29.582Z,2.35
2023-03-29T09:03:00.233Z,2.60
2023-03-29T09:05:31.152Z,2.40
2023-03-29T09:07:58.123Z,1.58
2023-03-29T09:10:35.627Z,2.88
2023-03-29T09:13:08.573Z,2.05
2023-03-29T09:15:48.635Z,2.65
2023-03-29T09:18:44.407Z,2.83
2023-03-29T09:21:46.789Z,2.75
2023-03-29T09:24:42.694Z,2.20
2023-03-29T09:27:15.320Z,2.35
2023-03-29T09:30:26.303Z,2.10
2023-03-29T09:32:54.540Z,1.65
2023-03-29T09:35:58.970Z,1.60
2023-03-29T09:38:28.881Z,2.55
2023-03-29T09:41:00.563Z,1.58
2023-03-29T09:43:46.135Z,1.73
2023-03-29T09:46:28.297Z,1.60
2023-03-29T09:48:56.787Z,1.88
2023-03-29T09:51:29.298Z,1.75
2023-03-29T09:53:58.157Z,1.75
2023-03-29T09:56:24.922Z,2.08
2023-03-29T09:58:51.900Z,1.67
2023-03-29T10:01:19.121Z,1.73
2023-03-29T10:03:51.634Z,1.55
2023-03-29T10:06:21.393Z,1.90
2023-03-29T10:08:52.855Z,1.52
2023-03-29T10:11:23.930Z,1.48
2023-03-29T10:13:55.081Z,1.60
2023-03-29T10:16:29.845Z,1.40
2023-03-29T10:18:57.871Z,1.20
2023-03-29T10:21:30.003Z,1.40
2023-03-29T10:24:00.006Z,1.10
2023-03-29T10:26:32.920Z,0.85
2023-03-29T10:29:01.875Z,0.85
2023-03-29T10:31:33.312Z,0.65
2023-03-29T10:34:06.341Z,0.82
2023-03-29T10:36:33.297Z,0.70
2023-03-29T10:39:05.589Z,1.08
2023-03-29T10:41:35.023Z,0.90
2023-03-29T10:44:03.395Z,0.60
2023-03-29T10:46:42.126Z,0.40
2023-03-29T10:49:19.241Z,0.50
2023-03-29T10:51:47.585Z,0.50
2023-03-29T10:54:17.488Z,1.15
2023-03-29T10:56:52.543Z,0.70
2023-03-29T10:59:49.128Z,0.50
2023-03-29T11:02:15.786Z,0.47
2023-03-29T11:04:52.885Z,0.45
2023-03-29T11:07:47.563Z,0.50
2023-03-29T11:10:35.428Z,0.50
2023-03-29T11:13:20.215Z,0.40
2023-03-29T11:16:08.377Z,0.30
2023-03-29T11:18:50.603Z,0.30
2023-03-29T11:21:36.184Z,0.30
2023-03-29T11:24:27.647Z,0.30
2023-03-29T11:27:00.394Z,0.30
2023-03-29T11:30:03.247Z,0.30
2023-03-29T11:32:56.562Z,1.73
2023-03-29T11:35:29.653Z,0.40
2023-03-29T11:38:35.316Z,0.35
2023-03-29T11:41:14.755Z,0.60
2023-03-29T11:43:50.993Z,0.30
2023-03-29T11:46:27.365Z,0.50
2023-03-29T11:49:04.466Z,0.38
2023-03-29T11:51:56.952Z,0.40
2023-03-29T11:54:41.992Z,0.50
2023-03-29T11:57:21.253Z,0.60
2023-03-29T12:00:07.010Z,0.40
2023-03-29T12:02:42.388Z,0.60
2023-03-29T12:05:21.071Z,0.50
2023-03-29T12:08:03.765Z,0.30
2023-03-29T12:10:46.329Z,0.70
2023-03-29T12:13:45.306Z,0.47
2023-03-29T12:16:35.426Z,0.40
2023-03-29T12:19:16.421Z,0.88
2023-03-29T12:21:46.230Z,0.80
2023-03-29T12:24:16.078Z,0.57
2023-03-29T12:26:57.890Z,0.90
2023-03-29T12:29:59.455Z,0.95
2023-03-29T12:32:26.046Z,1.02
2023-03-29T12:35:12.609Z,0.95
2023-03-29T12:37:47.844Z,1.10
2023-03-29T12:40:18.649Z,1.40
2023-03-29T12:42:53.095Z,1.30
2023-03-29T12:45:33.486Z,1.50
2023-03-29T12:48:01.304Z,1.40
2023-03-29T12:50:32.883Z,1.60
2023-03-29T12:53:15.707Z,1.73
2023-03-29T12:55:42.472Z,1.10
2023-03-29T12:58:35.309Z,1.20
2023-03-29T13:01:23.407Z,1.70
2023-03-29T13:03:52.144Z,1.80
2023-03-29T13:06:32.962Z,2.13
2023-03-29T13:09:20.428Z,1.10
2023-03-29T13:11:53.694Z,1.10
2023-03-29T13:14:24.090Z,1.50
2023-03-29T13:16:50.891Z,1.77
2023-03-29T13:19:26.888Z,1.00
2023-03-29T13:22:11.804Z,1.42
2023-03-29T13:24:54.325Z,2.28
2023-03-29T13:27:48.943Z,1.48
2023-03-29T13:30:56.906Z,1.42
2023-03-29T13:33:41.813Z,1.27
2023-03-29T13:36:27.136Z,1.38
2023-03-29T13:38:55.618Z,1.55
2023-03-29T13:41:40.328Z,1.13
2023-03-29T13:44:21.942Z,1.20
2023-03-29T13:47:00.914Z,1.15
2023-03-29T13:49:32.155Z,2.03
2023-03-29T13:52:22.658Z,1.20
2023-03-29T13:54:56.319Z,1.60
2023-03-29T13:57:34.957Z,0.98
2023-03-29T14:00:17.832Z,1.35
2023-03-29T14:02:52.247Z,1.25
2023-03-29T14:05:28.920Z,1.13
2023-03-29T14:07:55.859Z,2.28
2023-03-29T14:10:37.931Z,1.70
2023-03-29T14:13:04.667Z,1.38
2023-03-29T14:16:02.892Z,1.30
2023-03-29T14:18:37.205Z,1.30
2023-03-29T14:21:04.565Z,1.20
2023-03-29T14:23:35.199Z,1.70
2023-03-29T14:26:14.263Z,1.23
2023-03-29T14:28:49.089Z,1.45
2023-03-29T14:31:21.532Z,1.67
2023-03-29T14:33:59.585Z,1.38
2023-03-29T14:36:28.108Z,1.77
2023-03-29T14:39:02.759Z,1.38
2023-03-29T14:41:31.736Z,1.15
2023-03-29T14:43:59.634Z,1.42
2023-03-29T14:46:27.352Z,1.42
2023-03-29T14:48:55.880Z,1.60
2023-03-29T14:51:28.615Z,1.52
2023-03-29T14:53:56.145Z,2.97
2023-03-29T14:56:25.484Z,1.40
2023-03-29T14:58:56.928Z,1.73
2023-03-29T15:01:27.269Z,1.48
2023-03-29T15:04:01.965Z,1.85
2023-03-29T15:06:30.726Z,1.40
2023-03-29T15:09:04.898Z,1.35
2023-03-29T15:11:34.377Z,1.40
2023-03-29T15:14:14.143Z,1.70
2023-03-29T15:16:42.945Z,1.40
2023-03-29T15:19:18.685Z,1.60
2023-03-29T15:21:48.095Z,1.27
2023-03-29T15:24:30.468Z,1.60
2023-03-29T15:27:05.595Z,1.25
2023-03-29T15:29:46.361Z,1.23
2023-03-29T15:32:24.388Z,1.23
2023-03-29T15:35:02.239Z,1.30
2023-03-29T15:37:28.980Z,1.55
2023-03-29T15:39:56.444Z,2.22
2023-03-29T15:42:24.001Z,1.48
2023-03-29T15:44:54.802Z,1.42
2023-03-29T15:47:22.173Z,1.40
2023-03-29T15:49:48.875Z,1.65
2023-03-29T15:52:15.478Z,1.33
2023-03-29T15:54:42.467Z,1.40
2023-03-29T15:57:15.040Z,1.65
2023-03-29T15:59:43.005Z,1.42
2023-03-29T16:02:15.813Z,1.30
2023-03-29T16:04:43.128Z,1.40
2023-03-29T16:07:15.191Z,3.17
2023-03-29T16:09:42.307Z,1.15
2023-03-29T16:12:10.374Z,1.30
2023-03-29T16:14:37.182Z,1.67
2023-03-29T16:17:05.850Z,2.22
2023-03-29T16:19:33.848Z,1.90
2023-03-29T16:22:03.165Z,1.05
2023-03-29T16:24:32.254Z,1.40
2023-03-29T16:26:59.871Z,1.30
2023-03-29T16:29:26.523Z,1.60
2023-03-29T16:31:53.789Z,1.48
2023-03-29T16:34:21.759Z,1.88
2023-03-29T16:36:49.181Z,1.67
2023-03-29T16:39:16.221Z,1.27
2023-03-29T16:41:43.163Z,1.77
2023-03-29T16:44:15.849Z,1.42
2023-03-29T16:46:42.669Z,1.52
2023-03-29T16:49:14.003Z,1.65
2023-03-29T16:51:40.709Z,2.03
2023-03-29T16:54:07.477Z,1.90
2023-03-29T16:56:36.500Z,1.88
2023-03-29T16:59:03.544Z,2.22
2023-03-29T17:01:30.259Z,1.75
2023-03-29T17:03:57.214Z,2.20
2023-03-29T17:06:24.094Z,1.33
2023-03-29T17:08:50.817Z,1.40
2023-03-29T17:11:17.813Z,1.45
2023-03-29T17:13:44.601Z,1.73
2023-03-29T17:16:11.466Z,1.98
2023-03-29T17:18:38.254Z,1.60
2023-03-29T17:21:05.260Z,2.03
2023-03-29T17:23:31.852Z,2.13
2023-03-29T17:25:58.490Z,2.08
2023-03-29T17:28:25.252Z,1.80
2023-03-29T17:30:52.554Z,2.58
2023-03-29T17:33:22.843Z,1.65
2023-03-29T17:35:49.691Z,1.83
2023-03-29T17:38:16.355Z,1.73
2023-03-29T17:40:42.982Z,1.70
2023-03-29T17:43:09.607Z,1.40
2023-03-29T17:45:36.256Z,1.95
2023-03-29T17:48:05.597Z,2.20
2023-03-29T17:50:33.022Z,1.85
2023-03-29T17:52:59.657Z,1.50
2023-03-29T17:55:27.462Z,2.05
2023-03-29T17:57:54.129Z,1.95
2023-03-29T18:00:21.346Z,1.63
2023-03-29T18:02:48.202Z,1.30
2023-03-29T18:05:14.836Z,1.67
2023-03-29T18:07:41.434Z,1.65
2023-03-29T18:10:08.332Z,1.65
2023-03-29T18:12:35.264Z,2.00
2023-03-29T18:15:02.491Z,1.58
2023-03-29T18:17:29.350Z,1.58
2023-03-29T18:19:56.340Z,1.60
2023-03-29T18:22:24.164Z,1.58
2023-03-29T18:24:51.187Z,1.17
2023-03-29T18:27:18.447Z,1.58
2023-03-29T18:29:45.213Z,1.40
2023-03-29T18:32:12.892Z,1.48
2023-03-29T18:34:39.866Z,1.30
2023-03-29T18:37:07.489Z,1.70
2023-03-29T18:39:34.743Z,1.83
2023-03-29T18:42:02.116Z,1.52
2023-03-29T18:44:29.182Z,1.23
2023-03-29T18:46:56.343Z,1.25
2023-03-29T18:49:25.020Z,1.45
2023-03-29T18:51:51.941Z,1.27
2023-03-29T18:54:18.828Z,1.50
2023-03-29T18:56:45.617Z,2.22
2023-03-29T18:59:12.744Z,1.42
2023-03-29T19:01:39.601Z,1.50
2023-03-29T19:04:06.731Z,1.90
2023-03-29T19:06:33.366Z,2.50
2023-03-29T19:09:02.319Z,1.33
2023-03-29T19:11:29.708Z,1.67
2023-03-29T19:13:56.878Z,1.27
2023-03-29T19:16:23.699Z,0.98
2023-03-29T19:18:50.526Z,1.02
2023-03-29T19:21:17.149Z,2.55
2023-03-29T19:23:43.813Z,1.52
2023-03-29T19:26:11.664Z,1.00
2023-03-29T19:28:38.355Z,1.10
2023-03-29T19:31:05.402Z,1.05
2023-03-29T19:33:32.396Z,1.10
2023-03-29T19:35:59.224Z,1.15
2023-03-29T19:38:25.973Z,1.15
2023-03-29T19:40:52.962Z,0.80
2023-03-29T19:43:20.773Z,1.10
2023-03-29T19:45:49.424Z,1.20
2023-03-29T19:48:22.345Z,1.10
2023-03-29T19:50:49.556Z,1.10
2023-03-29T19:53:16.192Z,0.85
2023-03-29T19:55:45.421Z,1.02
2023-03-29T19:58:13.160Z,1.10
2023-03-29T20:00:41.880Z,1.15
2023-03-29T20:03:12.601Z,1.05
2023-03-29T20:05:40.208Z,1.10
2023-03-29T20:08:07.480Z,1.35
2023-03-29T20:10:34.932Z,1.70
2023-03-29T20:13:01.692Z,1.20
2023-03-29T20:15:28.612Z,1.40
2023-03-29T20:17:59.310Z,0.98
2023-03-29T20:20:27.023Z,1.40
2023-03-29T20:23:04.596Z,1.02
2023-03-29T20:25:35.773Z,1.45
2023-03-29T20:28:03.972Z,1.42
2023-03-29T20:30:30.798Z,1.52
2023-03-29T20:32:57.574Z,1.33
2023-03-29T20:35:24.586Z,1.70
2023-03-29T20:37:51.676Z,1.63
2023-03-29T20:40:18.319Z,1.73
2023-03-29T20:42:46.318Z,1.80
2023-03-29T20:45:18.567Z,1.50
2023-03-29T20:47:57.530Z,1.52
2023-03-29T20:50:28.811Z,1.65
2023-03-29T20:52:57.109Z,1.90
2023-03-29T20:55:24.180Z,2.20
2023-03-29T20:57:54.098Z,1.85
2023-03-29T21:00:21.045Z,1.67
2023-03-29T21:02:47.879Z,2.40
2023-03-29T21:05:15.772Z,1.70
2023-03-29T21:07:44.814Z,1.70
2023-03-29T21:10:12.399Z,2.00
2023-03-29T21:12:40.092Z,2.13
2023-03-29T21:15:10.563Z,1.63
2023-03-29T21:17:38.075Z,2.15
2023-03-29T21:20:11.153Z,2.10
2023-03-29T21:22:39.259Z,2.05
2023-03-29T21:25:15.517Z,1.90
2023-03-29T21:27:42.263Z,2.05
2023-03-29T21:30:09.587Z,1.70
2023-03-29T21:32:37.437Z,1.55
2023-03-29T21:35:04.291Z,1.98
2023-03-29T21:37:30.987Z,1.67
2023-03-29T21:39:57.974Z,1.80
2023-03-29T21:42:24.804Z,2.20
2023-03-29T21:44:51.472Z,1.98
2023-03-29T21:47:18.177Z,2.13
2023-03-29T21:49:45.469Z,1.90
2023-03-29T21:52:13.095Z,1.77
2023-03-29T21:54:39.788Z,2.30
2023-03-29T21:57:06.513Z,1.90
2023-03-29T21:59:33.177Z,2.50
2023-03-29T22:02:00.032Z,2.28
2023-03-29T22:04:36.582Z,2.47
2023-03-29T22:07:04.844Z,2.55
2023-03-29T22:09:34.881Z,1.88
2023-03-29T22:12:02.306Z,2.40
2023-03-29T22:14:30.280Z,2.47
2023-03-29T22:16:57.217Z,1.85
2023-03-29T22:19:24.004Z,2.40
2023-03-29T22:21:51.471Z,1.80
2023-03-29T22:24:19.085Z,1.55
2023-03-29T22:26:45.949Z,2.00
2023-03-29T22:29:12.543Z,1.83
2023-03-29T22:31:39.634Z,1.85
2023-03-29T22:34:06.909Z,2.53
2023-03-29T22:36:33.766Z,2.13
2023-03-29T22:39:00.727Z,2.58
2023-03-29T22:41:28.242Z,2.60
2023-03-29T22:43:57.373Z,2.13
2023-03-29T22:46:24.951Z,2.33
2023-03-29T22:48:52.494Z,2.08
2023-03-29T22:51:20.234Z,2.00
2023-03-29T22:53:47.159Z,1.55
2023-03-29T22:56:15.540Z,1.88
2023-03-29T22:58:43.079Z,1.63
2023-03-29T23:01:10.189Z,1.30
2023-03-29T23:03:37.084Z,1.20
2023-03-29T23:06:04.289Z,1.35
2023-03-29T23:08:33.134Z,1.40
2023-03-29T23:11:01.041Z,1.90
2023-03-29T23:13:29.249Z,1.70
2023-03-29T23:16:01.749Z,1.65
2023-03-29T23:18:30.846Z,1.60
2023-03-29T23:20:59.023Z,1.30
2023-03-29T23:23:27.071Z,1.50
2023-03-29T23:25:55.490Z,1.45
2023-03-29T23:28:25.056Z,1.52
2023-03-29T23:31:02.893Z,1.00
2023-03-29T23:33:33.633Z,1.25
2023-03-29T23:36:04.866Z,1.75
2023-03-29T23:38:34.180Z,1.20
2023-03-29T23:41:03.060Z,1.20
2023-03-29T23:43:33.090Z,1.60
2023-03-29T23:46:05.093Z,1.23
2023-03-29T23:48:32.779Z,1.50
2023-03-29T23:50:59.421Z,1.30
2023-03-29T23:53:28.744Z,1.45
2023-03-29T23:55:58.530Z,1.13
2023-03-29T23:58:25.131Z,2.08
